Time;durP1;ratioP1;P1;durP2;ratioP2;P2;SDS_P1;SDS_P2;PMS_P1;PMS_P2;Temp;Humidity;BMP_temperature;BMP_pressure;BME280_temperature;BME280_humidity;BME280_pressure;Samples;Min_cycle;Max_cycle;Signal;HPM_P1;HPM_P2
2023/12/04 00:02:42;;;;;;;13.38;8.68;;;;;;;;;;6212190;28;20053;-75
2023/12/04 00:05:44;;;;;;;16.70;9.73;;;;;;;;;;6207598;28;20135;-74
2023/12/04 00:08:46;;;;;;;12.68;9.32;;;;;;;;;;6237049;28;20548;-75
2023/12/04 00:11:48;;;;;;;10.10;6.20;;;;;;;;;;6222381;28;20042;-76
2023/12/04 00:14:50;;;;;;;9.15;7.45;;;;;;;;;;6264182;28;20053;-75
2023/12/04 00:17:52;;;;;;;11.55;8.13;;;;;;;;;;6220380;28;20049;-75
2023/12/04 00:20:55;;;;;;;14.43;7.07;;;;;;;;;;6239711;28;20609;-76
2023/12/04 00:23:57;;;;;;;9.73;7.18;;;;;;;;;;6205311;28;20679;-75
2023/12/04 00:27:00;;;;;;;10.25;6.40;;;;;;;;;;6230084;28;20474;-75
2023/12/04 00:30:04;;;;;;;7.80;5.50;;;;;;;;;;6194649;28;20041;-75
2023/12/04 00:33:06;;;;;;;8.80;6.05;;;;;;;;;;6239607;28;20677;-75
2023/12/04 00:36:09;;;;;;;9.88;6.20;;;;;;;;;;6219775;28;20134;-76
2023/12/04 00:39:11;;;;;;;12.35;5.88;;;;;;;;;;6231138;28;20049;-76
2023/12/04 00:42:14;;;;;;;9.20;6.20;;;;;;;;;;6221417;28;20569;-76
2023/12/04 00:45:16;;;;;;;14.70;8.43;;;;;;;;;;6210979;28;20045;-76
2023/12/04 00:48:19;;;;;;;10.60;6.50;;;;;;;;;;6218055;28;20073;-76
2023/12/04 00:51:22;;;;;;;13.48;7.80;;;;;;;;;;6211331;28;20141;-76
2023/12/04 00:54:24;;;;;;;9.75;7.50;;;;;;;;;;6214981;28;20041;-76
2023/12/04 00:57:27;;;;;;;8.65;5.90;;;;;;;;;;6241908;28;20506;-75
2023/12/04 01:00:29;;;;;;;9.35;7.20;;;;;;;;;;6227259;28;20053;-76
2023/12/04 01:03:33;;;;;;;9.88;6.68;;;;;;;;;;6239444;28;20054;-76
2023/12/04 01:06:35;;;;;;;11.25;6.60;;;;;;;;;;6213386;28;20056;-75
2023/12/04 01:09:38;;;;;;;7.10;3.25;;;;;;;;;;6230103;28;20586;-77
2023/12/04 01:12:41;;;;;;;12.05;6.57;;;;;;;;;;6267839;28;20069;-76
2023/12/04 01:15:44;;;;;;;10.45;7.55;;;;;;;;;;6236424;28;20041;-77
2023/12/04 01:18:46;;;;;;;11.32;6.85;;;;;;;;;;6252669;28;20068;-76
2023/12/04 01:21:49;;;;;;;11.68;8.55;;;;;;;;;;6262484;28;20049;-77
2023/12/04 01:24:51;;;;;;;9.68;6.68;;;;;;;;;;6248277;28;20042;-77
2023/12/04 01:27:53;;;;;;;10.02;6.88;;;;;;;;;;6217362;28;20112;-77
2023/12/04 01:30:56;;;;;;;9.48;5.88;;;;;;;;;;6255270;28;20034;-75
2023/12/04 01:33:58;;;;;;;13.38;7.57;;;;;;;;;;6229158;28;20089;-77
2023/12/04 01:37:00;;;;;;;9.05;6.22;;;;;;;;;;6243027;28;20120;-77
2023/12/04 01:40:06;;;;;;;9.27;5.97;;;;;;;;;;6226082;28;20105;-77
2023/12/04 01:43:11;;;;;;;15.35;8.23;;;;;;;;;;6250504;28;20080;-77
2023/12/04 01:46:15;;;;;;;10.60;6.63;;;;;;;;;;6250761;28;20049;-78
2023/12/04 01:49:18;;;;;;;10.40;6.00;;;;;;;;;;6224447;28;20061;-77
2023/12/04 01:52:20;;;;;;;9.82;5.63;;;;;;;;;;6233625;28;20042;-77
2023/12/04 01:55:22;;;;;;;12.38;8.82;;;;;;;;;;6256014;28;20059;-77
2023/12/04 01:58:25;;;;;;;15.13;8.65;;;;;;;;;;6234760;28;20045;-76
2023/12/04 02:01:28;;;;;;;9.98;8.98;;;;;;;;;;6234216;28;20049;-76
2023/12/04 02:04:32;;;;;;;5.68;5.15;;;;;;;;;;6227198;28;20046;-77
2023/12/04 02:07:36;;;;;;;14.43;7.93;;;;;;;;;;6208456;28;20046;-77
2023/12/04 02:10:39;;;;;;;8.35;5.03;;;;;;;;;;6242631;28;20085;-76
2023/12/04 02:13:42;;;;;;;9.30;6.20;;;;;;;;;;6267275;28;20048;-77
2023/12/04 02:16:47;;;;;;;8.35;6.10;;;;;;;;;;6221911;28;20038;-76
2023/12/04 02:19:50;;;;;;;8.80;6.93;;;;;;;;;;6225920;28;20141;-77
2023/12/04 02:22:51;;;;;;;13.93;7.90;;;;;;;;;;6236809;28;20053;-75
2023/12/04 02:25:59;;;;;;;11.85;9.65;;;;;;;;;;6228292;28;20526;-75
2023/12/04 02:29:07;;;;;;;9.50;6.70;;;;;;;;;;6232954;28;20053;-76
2023/12/04 02:32:15;;;;;;;9.95;8.32;;;;;;;;;;6229580;28;20060;-76
2023/12/04 02:35:21;;;;;;;13.73;8.88;;;;;;;;;;6231494;28;20052;-76
2023/12/04 02:38:27;;;;;;;10.75;7.05;;;;;;;;;;6211316;28;20041;-75
2023/12/04 02:41:30;;;;;;;11.18;7.82;;;;;;;;;;6230615;28;20045;-77
2023/12/04 02:44:32;;;;;;;6.97;5.55;;;;;;;;;;6237564;28;20443;-76
2023/12/04 02:47:34;;;;;;;6.88;5.65;;;;;;;;;;6231987;28;20080;-77
2023/12/04 02:50:36;;;;;;;8.18;5.88;;;;;;;;;;6231441;28;20046;-77
2023/12/04 02:53:39;;;;;;;10.27;7.65;;;;;;;;;;6224104;28;20113;-76
2023/12/04 02:56:43;;;;;;;10.20;6.63;;;;;;;;;;6261708;28;20048;-77
2023/12/04 02:59:45;;;;;;;7.95;5.25;;;;;;;;;;6219605;28;20053;-76
2023/12/04 03:02:47;;;;;;;8.85;6.43;;;;;;;;;;6228186;28;20558;-74
2023/12/04 03:05:50;;;;;;;11.50;8.25;;;;;;;;;;6258588;28;20046;-75
2023/12/04 03:08:52;;;;;;;11.25;7.60;;;;;;;;;;6248671;28;20068;-76
2023/12/04 03:11:55;;;;;;;10.90;7.85;;;;;;;;;;6256333;28;20037;-76
2023/12/04 03:14:57;;;;;;;8.98;5.47;;;;;;;;;;6252351;28;20062;-76
2023/12/04 03:18:00;;;;;;;6.68;4.60;;;;;;;;;;6217492;28;20067;-76
2023/12/04 03:21:04;;;;;;;8.88;5.28;;;;;;;;;;6261298;28;20041;-76
2023/12/04 03:24:09;;;;;;;12.23;7.35;;;;;;;;;;6254694;28;20050;-77
2023/12/04 03:27:12;;;;;;;12.98;8.07;;;;;;;;;;6247658;28;20047;-77
2023/12/04 03:30:14;;;;;;;11.95;8.20;;;;;;;;;;6267854;28;20050;-76
2023/12/04 03:33:16;;;;;;;11.10;6.85;;;;;;;;;;6249806;28;20102;-76
2023/12/04 03:36:18;;;;;;;11.32;7.45;;;;;;;;;;6255909;28;20130;-76
2023/12/04 03:39:21;;;;;;;12.27;6.35;;;;;;;;;;6216069;28;20056;-77
2023/12/04 03:42:23;;;;;;;7.18;4.68;;;;;;;;;;6248300;28;20141;-76
2023/12/04 03:45:26;;;;;;;13.20;7.03;;;;;;;;;;6255814;28;20045;-76
2023/12/04 03:48:28;;;;;;;9.85;6.53;;;;;;;;;;6220787;28;20046;-76
2023/12/04 03:51:31;;;;;;;9.45;6.72;;;;;;;;;;6257725;28;20045;-75
2023/12/04 03:54:33;;;;;;;7.38;4.88;;;;;;;;;;6213084;28;20050;-76
2023/12/04 03:57:36;;;;;;;8.98;4.68;;;;;;;;;;6215169;28;20061;-76
2023/12/04 04:00:41;;;;;;;6.93;5.00;;;;;;;;;;6249219;28;20052;-76
2023/12/04 04:03:45;;;;;;;6.07;3.83;;;;;;;;;;6233642;28;20077;-76
2023/12/04 04:06:48;;;;;;;7.78;6.07;;;;;;;;;;6252486;28;20046;-75
2023/12/04 04:09:50;;;;;;;7.95;6.15;;;;;;;;;;6231357;28;20041;-76
2023/12/04 04:12:53;;;;;;;7.00;4.75;;;;;;;;;;6226655;28;20052;-76
2023/12/04 04:15:55;;;;;;;9.13;6.55;;;;;;;;;;6242403;28;20120;-76
2023/12/04 04:18:57;;;;;;;8.77;6.70;;;;;;;;;;6222601;28;20042;-75
2023/12/04 04:21:59;;;;;;;11.25;7.72;;;;;;;;;;6239386;28;20088;-75
2023/12/04 04:25:02;;;;;;;12.27;6.25;;;;;;;;;;6250658;28;20049;-75
2023/12/04 04:28:06;;;;;;;8.40;4.05;;;;;;;;;;6215668;28;20069;-75
2023/12/04 04:31:09;;;;;;;8.40;4.40;;;;;;;;;;6198938;28;20044;-75
2023/12/04 04:34:12;;;;;;;12.10;8.90;;;;;;;;;;6224783;28;20050;-75
2023/12/04 04:37:15;;;;;;;12.95;9.10;;;;;;;;;;6226695;28;20211;-75
2023/12/04 04:40:19;;;;;;;9.05;5.82;;;;;;;;;;6223573;28;20503;-75
2023/12/04 04:43:21;;;;;;;6.55;4.68;;;;;;;;;;6254891;28;20105;-75
2023/12/04 04:46:25;;;;;;;15.35;9.90;;;;;;;;;;6245651;28;20048;-76
2023/12/04 04:49:33;;;;;;;12.63;7.63;;;;;;;;;;6214918;28;20053;-75
2023/12/04 04:52:36;;;;;;;12.88;8.48;;;;;;;;;;6230741;28;20041;-74
2023/12/04 04:55:38;;;;;;;9.35;6.15;;;;;;;;;;6257462;28;20056;-75
2023/12/04 04:58:49;;;;;;;;;;;;;;;;;;6245505;28;20111;-75
2023/12/04 05:01:54;;;;;;;5.32;4.03;;;;;;;;;;6209857;28;19929;-75
2023/12/04 05:04:56;;;;;;;11.25;7.38;;;;;;;;;;6225990;28;20046;-75
2023/12/04 05:07:58;;;;;;;7.05;5.38;;;;;;;;;;6242038;28;20060;-75
2023/12/04 05:11:01;;;;;;;12.30;8.68;;;;;;;;;;6252485;28;20617;-75
2023/12/04 05:14:03;;;;;;;6.65;5.13;;;;;;;;;;6223115;28;20041;-75
2023/12/04 05:17:06;;;;;;;12.80;6.45;;;;;;;;;;6252620;28;20041;-75
2023/12/04 05:20:08;;;;;;;8.73;4.97;;;;;;;;;;6249313;28;20083;-76
2023/12/04 05:23:10;;;;;;;13.52;5.68;;;;;;;;;;6215740;28;20045;-76
2023/12/04 05:26:12;;;;;;;9.05;6.32;;;;;;;;;;6236300;28;20061;-76
2023/12/04 05:29:16;;;;;;;7.38;4.07;;;;;;;;;;6214716;28;20092;-76
2023/12/04 05:32:20;;;;;;;6.22;5.00;;;;;;;;;;6245658;28;20025;-76
2023/12/04 05:35:23;;;;;;;8.40;4.93;;;;;;;;;;6228988;28;20046;-76
2023/12/04 05:38:25;;;;;;;10.55;4.25;;;;;;;;;;6231501;28;20107;-76
2023/12/04 05:41:27;;;;;;;9.43;7.07;;;;;;;;;;6230597;28;20199;-75
2023/12/04 05:44:31;;;;;;;8.48;6.13;;;;;;;;;;6239377;28;20503;-73
2023/12/04 05:47:34;;;;;;;8.30;4.18;;;;;;;;;;6214662;28;20113;-74
2023/12/04 05:50:36;;;;;;;10.70;7.28;;;;;;;;;;6231422;28;20099;-74
2023/12/04 05:53:39;;;;;;;6.50;3.72;;;;;;;;;;6212835;28;20582;-74
2023/12/04 05:56:44;;;;;;;9.57;6.60;;;;;;;;;;6233182;28;20054;-76
2023/12/04 05:59:46;;;;;;;7.43;4.85;;;;;;;;;;6228336;28;20045;-75
2023/12/04 06:02:54;;;;;;;8.38;6.32;;;;;;;;;;6231302;28;20044;-75
2023/12/04 06:05:57;;;;;;;12.60;6.18;;;;;;;;;;6220627;28;20129;-74
2023/12/04 06:09:02;;;;;;;14.93;8.02;;;;;;;;;;6247650;28;20045;-75
2023/12/04 06:12:09;;;;;;;15.05;9.45;;;;;;;;;;6237466;28;20100;-75
2023/12/04 06:15:11;;;;;;;7.13;5.10;;;;;;;;;;6252946;28;20080;-75
2023/12/04 06:18:13;;;;;;;9.48;6.35;;;;;;;;;;6253056;28;20049;-75
2023/12/04 06:21:15;;;;;;;9.85;6.15;;;;;;;;;;6236511;28;20049;-75
2023/12/04 06:24:17;;;;;;;5.75;3.97;;;;;;;;;;6237234;28;20511;-74
2023/12/04 06:27:20;;;;;;;5.55;5.05;;;;;;;;;;6235514;28;20120;-74
2023/12/04 06:30:22;;;;;;;11.07;7.57;;;;;;;;;;6223175;28;20069;-74
2023/12/04 06:33:26;;;;;;;7.47;4.38;;;;;;;;;;6232315;28;20129;-75
2023/12/04 06:36:31;;;;;;;10.88;6.45;;;;;;;;;;6237723;28;20526;-74
2023/12/04 06:39:34;;;;;;;7.40;6.15;;;;;;;;;;6228491;28;20046;-74
2023/12/04 06:42:37;;;;;;;10.93;6.65;;;;;;;;;;6229303;28;20045;-74
2023/12/04 06:45:40;;;;;;;9.30;6.50;;;;;;;;;;6234181;28;20133;-74
2023/12/04 06:48:43;;;;;;;11.45;6.32;;;;;;;;;;6242497;28;20045;-74
2023/12/04 06:51:46;;;;;;;9.70;5.97;;;;;;;;;;6212285;28;20511;-73
2023/12/04 06:54:50;;;;;;;9.88;5.95;;;;;;;;;;6204326;28;20041;-74
2023/12/04 06:57:52;;;;;;;10.68;6.03;;;;;;;;;;6232294;28;20095;-74
2023/12/04 07:00:57;;;;;;;11.38;7.38;;;;;;;;;;6231342;28;20097;-74
2023/12/04 07:03:59;;;;;;;6.50;5.22;;;;;;;;;;6238595;28;20042;-74
2023/12/04 07:07:04;;;;;;;10.25;7.03;;;;;;;;;;6235978;28;20053;-75
2023/12/04 07:10:07;;;;;;;10.70;7.40;;;;;;;;;;6207446;28;20046;-75
2023/12/04 07:13:12;;;;;;;7.45;4.05;;;;;;;;;;6248285;28;20045;-74
2023/12/04 07:16:14;;;;;;;10.73;6.97;;;;;;;;;;6225958;28;20651;-75
2023/12/04 07:19:19;;;;;;;6.18;4.72;;;;;;;;;;6228984;28;20041;-75
2023/12/04 07:22:22;;;;;;;9.68;6.03;;;;;;;;;;6215616;28;20048;-75
2023/12/04 07:25:24;;;;;;;11.75;8.68;;;;;;;;;;6205542;28;20060;-73
2023/12/04 07:28:26;;;;;;;19.92;9.85;;;;;;;;;;6209570;28;20065;-73
2023/12/04 07:31:28;;;;;;;11.30;7.72;;;;;;;;;;6216296;28;20063;-72
2023/12/04 07:34:31;;;;;;;10.52;5.18;;;;;;;;;;6210351;28;20497;-72
2023/12/04 07:37:33;;;;;;;12.98;9.15;;;;;;;;;;6218221;28;20558;-73
2023/12/04 07:40:35;;;;;;;9.18;6.63;;;;;;;;;;6236664;28;20094;-74
2023/12/04 07:43:38;;;;;;;15.65;9.73;;;;;;;;;;6214224;28;20136;-74
2023/12/04 07:46:41;;;;;;;8.52;5.45;;;;;;;;;;6235210;28;20049;-73
2023/12/04 07:49:45;;;;;;;10.90;8.05;;;;;;;;;;6230869;28;20041;-75
2023/12/04 07:52:47;;;;;;;11.77;6.88;;;;;;;;;;6196063;28;20049;-74
2023/12/04 07:55:52;;;;;;;17.55;10.05;;;;;;;;;;6220928;28;20048;-74
2023/12/04 07:58:54;;;;;;;19.67;13.55;;;;;;;;;;6230294;28;20096;-74
2023/12/04 08:01:56;;;;;;;6.95;5.53;;;;;;;;;;6231862;28;20053;-78
2023/12/04 08:05:00;;;;;;;11.40;7.20;;;;;;;;;;6224441;28;20136;-73
2023/12/04 08:08:03;;;;;;;14.88;10.02;;;;;;;;;;6217390;28;20088;-73
2023/12/04 08:11:06;;;;;;;8.60;5.38;;;;;;;;;;6228239;28;20042;-74
2023/12/04 08:14:08;;;;;;;9.30;6.20;;;;;;;;;;6216151;28;20049;-73
2023/12/04 08:17:10;;;;;;;12.75;8.80;;;;;;;;;;6233637;28;20045;-73
2023/12/04 08:20:13;;;;;;;10.15;7.15;;;;;;;;;;6211249;28;20191;-73
2023/12/04 08:23:25;;;;;;;13.70;7.60;;;;;;;;;;6229553;28;20092;-73
2023/12/04 08:26:27;;;;;;;8.45;6.55;;;;;;;;;;6207468;28;20136;-73
2023/12/04 08:29:29;;;;;;;12.23;7.63;;;;;;;;;;6234719;28;20062;-73
2023/12/04 08:32:31;;;;;;;10.85;6.50;;;;;;;;;;6224504;28;20091;-74
2023/12/04 08:35:34;;;;;;;12.00;8.07;;;;;;;;;;6224061;28;20060;-73
2023/12/04 08:38:37;;;;;;;10.32;6.30;;;;;;;;;;6240287;28;20064;-74
2023/12/04 08:41:39;;;;;;;15.70;10.02;;;;;;;;;;6230234;28;20034;-73
2023/12/04 08:44:52;;;;;;;15.40;8.43;;;;;;;;;;6245575;28;20053;-72
2023/12/04 08:47:54;;;;;;;14.40;8.10;;;;;;;;;;6239939;28;20045;-73
2023/12/04 08:50:57;;;;;;;15.55;9.25;;;;;;;;;;6240694;28;20169;-73
2023/12/04 08:54:02;;;;;;;13.75;8.52;;;;;;;;;;6240052;28;20132;-74
2023/12/04 08:57:18;;;;;;;8.95;6.78;;;;;;;;;;6228010;28;20048;-73
2023/12/04 09:00:21;;;;;;;12.18;8.45;;;;;;;;;;6224254;28;20057;-72
2023/12/04 09:03:23;;;;;;;11.02;8.55;;;;;;;;;;6240964;28;20080;-72
2023/12/04 09:06:33;;;;;;;15.65;9.77;;;;;;;;;;6234496;28;20049;-73
2023/12/04 09:09:39;;;;;;;9.32;6.32;;;;;;;;;;6255140;28;20037;-73
2023/12/04 09:12:41;;;;;;;9.23;5.75;;;;;;;;;;6236504;28;20047;-73
2023/12/04 09:15:44;;;;;;;10.02;6.22;;;;;;;;;;6232967;28;20515;-74
2023/12/04 09:18:47;;;;;;;10.23;7.90;;;;;;;;;;6218386;28;20041;-73
2023/12/04 09:21:49;;;;;;;10.90;7.13;;;;;;;;;;6233580;28;20040;-73
2023/12/04 09:25:09;;;;;;;12.15;7.28;;;;;;;;;;6211204;28;20049;-73
2023/12/04 09:28:11;;;;;;;12.80;6.32;;;;;;;;;;6230576;28;20081;-73
2023/12/04 09:31:13;;;;;;;13.20;7.65;;;;;;;;;;6252001;28;20091;-74
2023/12/04 09:34:15;;;;;;;13.75;7.43;;;;;;;;;;6245668;28;20052;-74
2023/12/04 09:37:18;;;;;;;13.55;8.02;;;;;;;;;;6211897;28;20577;-73
2023/12/04 09:40:20;;;;;;;13.65;6.78;;;;;;;;;;6216878;28;20049;-73
2023/12/04 09:43:24;;;;;;;12.10;8.05;;;;;;;;;;6232605;28;20049;-73
2023/12/04 09:46:31;;;;;;;10.77;7.30;;;;;;;;;;6220250;28;20042;-73
2023/12/04 09:49:33;;;;;;;14.98;8.88;;;;;;;;;;6228130;28;20580;-73
2023/12/04 09:52:36;;;;;;;15.90;8.90;;;;;;;;;;6215844;28;20144;-73
2023/12/04 09:55:38;;;;;;;18.30;10.93;;;;;;;;;;6229774;28;20098;-73
2023/12/04 09:58:40;;;;;;;14.63;8.30;;;;;;;;;;6240553;28;20053;-75
2023/12/04 10:01:43;;;;;;;11.75;6.65;;;;;;;;;;6230504;28;20029;-73
2023/12/04 10:04:47;;;;;;;11.82;7.82;;;;;;;;;;6216596;28;20049;-74
2023/12/04 10:07:50;;;;;;;9.32;5.85;;;;;;;;;;6225805;28;20454;-73
2023/12/04 10:10:53;;;;;;;12.10;6.15;;;;;;;;;;6229459;28;20053;-73
2023/12/04 10:13:56;;;;;;;9.77;7.45;;;;;;;;;;6241072;28;20081;-73
2023/12/04 10:17:14;;;;;;;15.10;7.43;;;;;;;;;;6215260;28;20958;-73
2023/12/04 10:20:20;;;;;;;8.90;6.30;;;;;;;;;;6216802;28;20068;-73
2023/12/04 10:23:23;;;;;;;8.90;5.88;;;;;;;;;;6195335;28;20659;-73
2023/12/04 10:26:26;;;;;;;16.85;7.63;;;;;;;;;;6205363;28;20041;-73
2023/12/04 10:29:32;;;;;;;16.10;10.00;;;;;;;;;;6228085;28;20044;-73
2023/12/04 10:32:41;;;;;;;10.70;7.32;;;;;;;;;;6218634;28;20561;-73
2023/12/04 10:35:44;;;;;;;11.32;6.72;;;;;;;;;;6218761;28;20048;-74
2023/12/04 10:38:46;;;;;;;12.82;8.27;;;;;;;;;;6237992;28;20148;-74
2023/12/04 10:42:00;;;;;;;12.38;7.03;;;;;;;;;;6203836;28;20099;-74
2023/12/04 10:45:02;;;;;;;13.23;8.25;;;;;;;;;;6229547;28;20053;-74
2023/12/04 10:48:08;;;;;;;12.32;7.35;;;;;;;;;;6232200;28;20046;-73
2023/12/04 10:51:12;;;;;;;10.88;6.65;;;;;;;;;;6208157;28;20042;-73
2023/12/04 10:54:14;;;;;;;11.38;6.90;;;;;;;;;;6218949;28;20126;-74
2023/12/04 10:57:25;;;;;;;11.38;7.07;;;;;;;;;;6233221;28;20064;-74
2023/12/04 11:00:34;;;;;;;15.50;8.05;;;;;;;;;;6229270;28;20047;-73
2023/12/04 11:03:48;;;;;;;10.93;7.55;;;;;;;;;;6211217;28;20128;-73
2023/12/04 11:06:54;;;;;;;12.90;8.13;;;;;;;;;;6223221;28;20084;-74
2023/12/04 11:09:59;;;;;;;10.95;7.18;;;;;;;;;;6218827;28;20042;-74
2023/12/04 11:13:10;;;;;;;12.82;6.90;;;;;;;;;;6207857;28;20050;-73
2023/12/04 11:16:20;;;;;;;12.75;7.90;;;;;;;;;;6224969;28;20514;-73
2023/12/04 11:19:55;;;;;;;13.15;6.78;;;;;;;;;;6206263;28;20049;-73
2023/12/04 11:22:58;;;;;;;11.57;7.65;;;;;;;;;;6218524;28;20049;-74
2023/12/04 11:26:05;;;;;;;13.45;6.80;;;;;;;;;;6200447;28;20462;-73
2023/12/04 11:29:08;;;;;;;13.60;9.10;;;;;;;;;;6217489;28;20064;-74
2023/12/04 11:32:16;;;;;;;10.77;6.38;;;;;;;;;;6209723;28;20147;-74
2023/12/04 11:35:18;;;;;;;14.73;7.80;;;;;;;;;;6213535;28;20533;-73
2023/12/04 11:38:21;;;;;;;14.55;8.15;;;;;;;;;;6225765;28;20054;-73
2023/12/04 11:41:23;;;;;;;12.13;7.00;;;;;;;;;;6222133;28;20060;-73
2023/12/04 11:44:28;;;;;;;27.92;18.60;;;;;;;;;;6208270;28;20056;-74
2023/12/04 11:47:54;;;;;;;19.20;11.93;;;;;;;;;;6231451;28;20124;-74
2023/12/04 11:51:00;;;;;;;11.48;6.93;;;;;;;;;;6233858;28;20038;-73
2023/12/04 11:54:04;;;;;;;9.25;5.22;;;;;;;;;;6216241;28;20549;-73
2023/12/04 11:57:09;;;;;;;12.32;8.05;;;;;;;;;;6229691;28;20143;-73
2023/12/04 12:00:22;;;;;;;8.43;5.55;;;;;;;;;;6216888;28;20046;-72
2023/12/04 12:03:25;;;;;;;12.50;7.85;;;;;;;;;;6199086;28;20202;-72
2023/12/04 12:06:28;;;;;;;24.33;16.15;;;;;;;;;;6239164;28;20055;-73
2023/12/04 12:09:33;;;;;;;15.60;6.65;;;;;;;;;;6236570;28;20154;-72
2023/12/04 12:12:36;;;;;;;10.07;5.95;;;;;;;;;;6237992;28;20045;-72
2023/12/04 12:15:39;;;;;;;8.63;6.25;;;;;;;;;;6206685;28;20184;-73
2023/12/04 12:18:41;;;;;;;9.38;6.30;;;;;;;;;;6235647;28;20107;-73
2023/12/04 12:21:43;;;;;;;7.38;3.72;;;;;;;;;;6227433;28;20045;-73
2023/12/04 12:24:45;;;;;;;8.25;5.32;;;;;;;;;;6231445;28;20038;-73
2023/12/04 12:27:48;;;;;;;10.40;5.35;;;;;;;;;;6219049;28;20061;-72
2023/12/04 12:30:52;;;;;;;5.40;3.72;;;;;;;;;;6207372;28;20115;-72
2023/12/04 12:33:55;;;;;;;4.85;3.72;;;;;;;;;;6197469;28;20050;-73
2023/12/04 12:36:59;;;;;;;5.10;2.97;;;;;;;;;;6208400;28;20557;-72
2023/12/04 12:40:01;;;;;;;5.68;4.10;;;;;;;;;;6212076;28;20038;-72
2023/12/04 12:43:08;;;;;;;7.35;5.18;;;;;;;;;;6203066;28;20470;-74
2023/12/04 12:46:11;;;;;;;6.45;4.75;;;;;;;;;;6219521;28;20041;-74
2023/12/04 12:49:15;;;;;;;9.35;5.07;;;;;;;;;;6241727;28;20055;-74
2023/12/04 12:52:25;;;;;;;9.13;5.03;;;;;;;;;;6220749;28;20036;-74
2023/12/04 12:55:28;;;;;;;8.18;5.95;;;;;;;;;;6220532;28;20046;-73
2023/12/04 12:58:30;;;;;;;8.68;5.50;;;;;;;;;;6201363;28;20042;-74
2023/12/04 13:01:32;;;;;;;10.35;8.30;;;;;;;;;;6213898;28;20168;-73
2023/12/04 13:04:41;;;;;;;7.35;4.85;;;;;;;;;;6224035;28;20052;-73
2023/12/04 13:07:46;;;;;;;12.50;6.72;;;;;;;;;;6233811;28;20080;-72
2023/12/04 13:10:50;;;;;;;11.32;6.25;;;;;;;;;;6213635;28;20064;-72
2023/12/04 13:13:52;;;;;;;8.20;5.22;;;;;;;;;;6227207;28;20045;-73
2023/12/04 13:16:55;;;;;;;9.00;6.05;;;;;;;;;;6234006;28;20044;-73
2023/12/04 13:19:58;;;;;;;6.55;4.13;;;;;;;;;;6236487;28;20061;-72
2023/12/04 13:23:00;;;;;;;5.97;3.58;;;;;;;;;;6232581;28;20127;-73
2023/12/04 13:26:03;;;;;;;10.55;5.05;;;;;;;;;;6224648;28;20397;-73
2023/12/04 13:29:08;;;;;;;6.82;5.05;;;;;;;;;;6212462;28;20604;-73
2023/12/04 13:32:13;;;;;;;7.97;5.00;;;;;;;;;;6236147;28;20045;-73
2023/12/04 13:35:15;;;;;;;10.32;6.47;;;;;;;;;;6237571;28;20046;-73
2023/12/04 13:38:18;;;;;;;8.23;4.97;;;;;;;;;;6215051;28;20069;-73
2023/12/04 13:44:48;;;;;;;7.55;5.22;;;;;;;;;;6205531;28;20465;-73
2023/12/04 13:47:50;;;;;;;9.35;5.10;;;;;;;;;;6230381;28;20052;-72
2023/12/04 13:50:54;;;;;;;18.95;14.90;;;;;;;;;;6231298;28;20045;-73
2023/12/04 13:54:08;;;;;;;13.60;8.52;;;;;;;;;;6219854;28;20046;-72
2023/12/04 13:57:18;;;;;;;9.82;6.72;;;;;;;;;;6212877;28;20056;-72
2023/12/04 14:00:21;;;;;;;;;;;;;;;;;;6218398;28;20057;-72
2023/12/04 14:03:25;;;;;;;10.63;6.90;;;;;;;;;;6221406;28;19925;-73
2023/12/04 14:06:28;;;;;;;11.05;7.00;;;;;;;;;;6209779;28;20053;-72
2023/12/04 14:09:32;;;;;;;12.10;7.57;;;;;;;;;;6219234;28;20119;-72
2023/12/04 14:12:34;;;;;;;10.70;6.75;;;;;;;;;;6230707;28;20046;-73
2023/12/04 14:15:36;;;;;;;10.50;6.43;;;;;;;;;;6237434;28;20109;-73
2023/12/04 14:18:38;;;;;;;10.30;7.20;;;;;;;;;;6238110;28;20064;-72
2023/12/04 14:21:40;;;;;;;12.93;7.35;;;;;;;;;;6215209;28;20065;-73
2023/12/04 14:24:43;;;;;;;10.65;7.03;;;;;;;;;;6202609;28;20045;-73
2023/12/04 14:27:46;;;;;;;11.27;7.35;;;;;;;;;;6217526;28;20056;-72
2023/12/04 14:30:49;;;;;;;14.25;9.10;;;;;;;;;;6224521;28;20450;-73
2023/12/04 14:33:52;;;;;;;10.35;6.40;;;;;;;;;;6224823;28;20117;-75
2023/12/04 14:36:56;;;;;;;11.65;7.60;;;;;;;;;;6215149;28;20045;-72
2023/12/04 14:39:59;;;;;;;8.85;5.53;;;;;;;;;;6229653;28;20053;-73
2023/12/04 14:43:02;;;;;;;9.68;5.65;;;;;;;;;;6214653;28;20691;-72
2023/12/04 14:46:05;;;;;;;11.55;7.65;;;;;;;;;;6228845;28;20034;-73
2023/12/04 14:49:07;;;;;;;10.60;6.82;;;;;;;;;;6220171;28;20045;-72
2023/12/04 14:52:11;;;;;;;13.13;10.00;;;;;;;;;;6222714;28;20128;-72
2023/12/04 15:12:17;;;;;;;57.60;31.40;;;;;;;;;;6216626;28;20056;-71
2023/12/04 15:22:01;;;;;;;10.20;6.88;;;;;;;;;;6202334;28;20410;-72
2023/12/04 15:25:06;;;;;;;11.68;8.07;;;;;;;;;;6228139;28;20088;-72
2023/12/04 15:28:09;;;;;;;12.10;7.63;;;;;;;;;;6228884;28;20038;-72
2023/12/04 15:31:13;;;;;;;10.68;5.82;;;;;;;;;;6236787;28;20188;-72
2023/12/04 15:34:17;;;;;;;11.85;7.78;;;;;;;;;;6245487;28;20137;-73
2023/12/04 15:37:20;;;;;;;12.80;6.43;;;;;;;;;;6236310;28;20127;-74
2023/12/04 15:40:22;;;;;;;9.80;6.53;;;;;;;;;;6241722;28;20041;-73
2023/12/04 15:43:25;;;;;;;8.35;6.28;;;;;;;;;;6241185;28;20128;-73
2023/12/04 15:46:28;;;;;;;14.02;8.13;;;;;;;;;;6215745;28;20606;-73
2023/12/04 15:49:31;;;;;;;14.90;9.55;;;;;;;;;;6235237;28;20117;-73
2023/12/04 15:52:38;;;;;;;19.88;9.93;;;;;;;;;;6196680;28;20122;-74
2023/12/04 15:55:40;;;;;;;11.80;8.38;;;;;;;;;;6237750;28;20037;-73
2023/12/04 15:58:42;;;;;;;13.88;7.72;;;;;;;;;;6216902;28;20053;-73
2023/12/04 16:01:44;;;;;;;19.50;9.77;;;;;;;;;;6229358;28;20056;-71
2023/12/04 16:04:47;;;;;;;20.42;10.00;;;;;;;;;;6245102;28;20060;-72
2023/12/04 16:07:49;;;;;;;18.35;9.52;;;;;;;;;;6231596;28;20061;-72
2023/12/04 16:10:53;;;;;;;21.33;10.88;;;;;;;;;;6214144;28;20551;-72
2023/12/04 16:13:55;;;;;;;16.35;9.98;;;;;;;;;;6223193;28;20072;-72
2023/12/04 16:16:57;;;;;;;14.93;9.40;;;;;;;;;;6227431;28;20453;-72
2023/12/04 16:20:05;;;;;;;19.48;10.05;;;;;;;;;;6215278;28;20049;-72
2023/12/04 16:23:08;;;;;;;28.98;11.65;;;;;;;;;;6237571;28;20565;-72
2023/12/04 16:26:10;;;;;;;21.15;10.60;;;;;;;;;;6202036;28;20045;-73
2023/12/04 16:29:14;;;;;;;30.63;16.13;;;;;;;;;;6241248;28;20537;-73
2023/12/04 16:32:16;;;;;;;24.95;15.02;;;;;;;;;;6221340;28;20191;-73
2023/12/04 16:35:20;;;;;;;34.22;17.15;;;;;;;;;;6223785;28;20046;-73
2023/12/04 16:38:26;;;;;;;26.60;15.20;;;;;;;;;;6230790;28;20034;-73
2023/12/04 16:41:29;;;;;;;28.65;15.65;;;;;;;;;;6230818;28;20054;-74
2023/12/04 16:44:33;;;;;;;32.28;16.90;;;;;;;;;;6237657;28;20046;-74
2023/12/04 16:47:35;;;;;;;27.90;16.02;;;;;;;;;;6200735;28;20042;-71
2023/12/04 16:50:37;;;;;;;25.65;15.23;;;;;;;;;;6220030;28;20053;-72
2023/12/04 16:53:40;;;;;;;29.58;15.02;;;;;;;;;;6244340;28;20128;-72
2023/12/04 16:56:42;;;;;;;23.55;13.45;;;;;;;;;;6230480;28;20182;-71
2023/12/04 16:59:44;;;;;;;19.48;11.95;;;;;;;;;;6223185;28;20152;-71
2023/12/04 17:02:46;;;;;;;22.92;11.40;;;;;;;;;;6205270;28;20835;-72
2023/12/04 17:05:49;;;;;;;19.08;9.90;;;;;;;;;;6229632;28;20817;-73
2023/12/04 17:08:53;;;;;;;21.45;11.05;;;;;;;;;;6232816;28;20049;-72
2023/12/04 17:11:55;;;;;;;17.17;8.90;;;;;;;;;;6226494;28;20041;-74
2023/12/04 17:14:58;;;;;;;19.73;10.32;;;;;;;;;;6214946;28;20191;-72
2023/12/04 17:18:02;;;;;;;19.67;14.55;;;;;;;;;;6206119;28;20185;-72
2023/12/04 17:21:04;;;;;;;22.55;14.90;;;;;;;;;;6221354;28;20053;-73
2023/12/04 17:24:07;;;;;;;22.83;14.52;;;;;;;;;;6251003;28;20751;-73
2023/12/04 17:27:09;;;;;;;28.60;18.45;;;;;;;;;;6218355;28;20044;-73
2023/12/04 17:30:12;;;;;;;21.00;12.52;;;;;;;;;;6234783;28;20042;-72
2023/12/04 17:33:14;;;;;;;27.25;16.42;;;;;;;;;;6223974;28;20578;-73
2023/12/04 17:36:16;;;;;;;17.95;10.35;;;;;;;;;;6221059;28;20045;-72
2023/12/04 17:39:19;;;;;;;19.15;11.70;;;;;;;;;;6221358;28;20494;-73
2023/12/04 17:42:22;;;;;;;15.43;9.80;;;;;;;;;;6215343;28;20049;-73
2023/12/04 17:45:26;;;;;;;17.83;12.45;;;;;;;;;;6232957;28;20788;-72
2023/12/04 17:48:29;;;;;;;19.77;13.20;;;;;;;;;;6206338;28;20719;-73
2023/12/04 17:51:31;;;;;;;16.63;11.02;;;;;;;;;;6216491;28;20563;-72
2023/12/04 17:54:36;;;;;;;22.95;12.57;;;;;;;;;;6225941;28;20136;-73
2023/12/04 17:57:39;;;;;;;20.15;12.57;;;;;;;;;;6230933;28;20045;-75
2023/12/04 18:00:43;;;;;;;25.67;13.50;;;;;;;;;;6231579;28;20041;-73
2023/12/04 18:03:46;;;;;;;20.52;12.25;;;;;;;;;;6234614;28;20088;-72
2023/12/04 18:06:52;;;;;;;21.75;14.02;;;;;;;;;;6231134;28;20592;-72
2023/12/04 18:09:54;;;;;;;19.23;11.48;;;;;;;;;;6233744;28;20033;-72
2023/12/04 18:12:58;;;;;;;21.88;12.50;;;;;;;;;;6207938;28;20041;-73
2023/12/04 18:16:00;;;;;;;21.42;11.10;;;;;;;;;;6228674;28;20057;-72
2023/12/04 18:19:03;;;;;;;20.55;13.05;;;;;;;;;;6224328;28;20038;-73
2023/12/04 18:22:06;;;;;;;17.30;11.73;;;;;;;;;;6223256;28;20053;-72
2023/12/04 18:25:09;;;;;;;15.40;9.02;;;;;;;;;;6215144;28;20649;-72
2023/12/04 18:28:12;;;;;;;20.15;10.93;;;;;;;;;;6225579;28;20037;-72
2023/12/04 18:31:16;;;;;;;18.00;11.40;;;;;;;;;;6203767;28;20041;-72
2023/12/04 18:34:19;;;;;;;21.48;12.82;;;;;;;;;;6229665;28;20045;-72
2023/12/04 18:37:35;;;;;;;15.93;10.48;;;;;;;;;;6234042;28;20095;-72